• Join FlightAware (Why Join?)
  • Login
  • US Flag 
12:42PM EST


 

Airport Tracker/Info


-or-


 

Live Flight TrackerFlight Track Log ✈ N46CR ✈ 03-May-2012 ✈ KSRQ - MBPV / PLS

Flight Track Log - Related Links

Times and Time Zones

All times are in EDT time to prevent confusion due to time zone crossing. See the N46CR flight status page for this flight to view local times or setup timezone preferences in your user account.

Time Position Orientation Groundspeed Altitude Reporting Facility
EDT Latitude Longitude Course Direction KTS MPH feet Rate Location/Type
01:47PM 27.3833 -82.5500 127° Southeast 96 110 400  Level Tampa TRACON
01:49PM 27.3500 -82.5000 138° Southeast 112 129 1,800 780 Climbing Tampa TRACON
01:50PM 27.3333 -82.4833 156° South 115 132 2,700 840 Climbing Tampa TRACON
01:51PM 27.3000 -82.4667 161° South 111 128 3,600 660 Climbing Tampa TRACON
01:53PM 27.2283 -82.4386 149° Southeast 143 165 4,800 600 Climbing Miami Center
01:54PM 27.1978 -82.4183 138° Southeast 138 159 5,500 720 Climbing Miami Center
01:55PM 27.1736 -82.3939 131° Southeast 127 146 6,300 780 Climbing Miami Center
01:56PM 27.1497 -82.3625 130° Southeast 127 146 7,100 780 Climbing Miami Center
01:57PM 27.1261 -82.3311 135° Southeast 127 146 7,900 720 Climbing Miami Center
01:58PM 27.1000 -82.3019 135° Southeast 127 146 8,600 720 Climbing Miami Center
01:59PM 27.0758 -82.2750 135° Southeast 127 146 9,400 720 Climbing Miami Center
02:00PM 27.0478 -82.2433 135° Southeast 127 146 10,100 600 Climbing Miami Center
02:01PM 27.0219 -82.2142 122° Southeast 132 152 10,700 600 Climbing Miami Center
02:02PM 27.0022 -82.1783 114° Southeast 132 152 11,400 600 Climbing Miami Center
02:03PM 26.9850 -82.1358 115° Southeast 137 158 12,000 600 Climbing Miami Center
02:04PM 26.9678 -82.0953 119° Southeast 147 169 12,700 600 Climbing Miami Center
02:05PM 26.9464 -82.0525 119° Southeast 147 169 13,200 480 Climbing Miami Center
02:06PM 26.9250 -82.0097 118° Southeast 153 176 13,700 540 Climbing Miami Center
02:07PM 26.9036 -81.9644 117° Southeast 158 182 14,300 540 Climbing Miami Center
02:08PM 26.8822 -81.9169 117° Southeast 164 189 14,800 540 Climbing Miami Center
02:09PM 26.8608 -81.8694 117° Southeast 164 189 15,400 600 Climbing Miami Center
02:10PM 26.8414 -81.8267 114° Southeast 164 189 16,100 600 Climbing Miami Center
02:11PM 26.8242 -81.7842 116° Southeast 159 183 16,700 360 Climbing Miami Center
02:12PM 26.8047 -81.7392 121° Southeast 159 183 16,900 60 Climbing Miami Center
02:13PM 26.7792 -81.6914 118° Southeast 166 191 16,900  Level Miami Center
02:14PM 26.7558 -81.6417 116° Southeast 178 205 16,900 240 Level Miami Center
02:15PM 26.7325 -81.5872 117° Southeast 187 215 17,400 420 Climbing Miami Center
02:16PM 26.7092 -81.5353 117° Southeast 181 208 17,800 540 Climbing Miami Center
02:17PM 26.6917 -81.4972 116° Southeast 170 196 18,500 540 Climbing Miami Center
02:18PM 26.6722 -81.4525 120° Southeast 164 189 18,900 240 Climbing Miami Center
02:19PM 26.6467 -81.4025 117° Southeast 169 194 19,000  Climbing Miami Center
02:20PM 26.6233 -81.3506 119° Southeast 180 207 19,000  Level Miami Center
02:21PM 26.5978 -81.2986 115° Southeast 187 215 19,000  Level Miami Center
02:22PM 26.5764 -81.2467 119° Southeast 192 221 19,000  Level Miami Center
02:23PM 26.5506 -81.1947 119° Southeast 192 221 19,000  Level Miami Center
02:24PM 26.5231 -81.1403 118° Southeast 192 221 19,000  Level Miami Center
02:25PM 26.4994 -81.0906 119° Southeast 187 215 19,000  Level Miami Center
02:26PM 26.4739 -81.0386 118° Southeast 187 215 19,000  Level Miami Center
02:27PM 26.4522 -80.9939 117° Southeast 187 215 19,000  Level Miami Center
02:28PM 26.4267 -80.9372 115° Southeast 187 215 19,000  Level Miami Center
02:29PM 26.4069 -80.8903 121° Southeast 187 215 19,000 240 Level Miami Center
02:30PM 26.3792 -80.8383 118° Southeast 187 215 19,500 480 Climbing Miami Center
02:31PM 26.3575 -80.7936 119° Southeast 187 215 20,000 420 Climbing Miami Center
02:32PM 26.3317 -80.7417 119° Southeast 187 215 20,400 300 Climbing Miami Center
02:33PM 26.3097 -80.6969 117° Southeast 187 215 20,700 300 Climbing Miami Center
02:34PM 26.2842 -80.6406 116° Southeast 187 215 21,000 120 Climbing Miami Center
02:35PM 26.2606 -80.5864 120° Southeast 187 215 21,000  Level Miami Center
02:36PM 26.2306 -80.5278 118° Southeast 194 223 21,000  Level Miami Center
02:37PM 26.2028 -80.4689 119° Southeast 201 231 21,000  Level Miami Center
02:38PM 26.1750 -80.4125 119° Southeast 206 237 21,000  Level Miami Center
02:39PM 26.1472 -80.3561 115° Southeast 206 237 21,000  Level Miami Center
02:40PM 26.1233 -80.3000 118° Southeast 206 237 21,000  Level Miami Center
02:41PM 26.0975 -80.2461 118° Southeast 206 237 21,000  Level Miami Center
02:42PM 26.0717 -80.1922 119° Southeast 206 237 21,000  Level Miami Center
02:43PM 26.0436 -80.1358 118° Southeast 206 237 21,000  Level Miami Center
02:44PM 26.0178 -80.0819 117° Southeast 206 237 21,000  Level Miami Center
02:45PM 25.9917 -80.0258 116° Southeast 206 237 21,000  Level Miami Center
02:46PM 25.9658 -79.9672 119° Southeast 206 237 21,000  Level Miami Center
02:47PM 25.9378 -79.9111 119° Southeast 206 237 21,000  Level Miami Center
02:48PM 25.9097 -79.8550 118° Southeast 206 237 21,000  Level Miami Center
02:49PM 25.8817 -79.7967 117° Southeast 206 237 21,000  Level Miami Center
02:50PM 25.8556 -79.7406 120° Southeast 206 237 21,000  Level Miami Center
02:51PM 25.8253 -79.6819 118° Southeast 206 237 21,000  Level Miami Center
02:52PM 25.7992 -79.6283 118° Southeast 206 237 21,000  Level Miami Center
02:53PM 25.7750 -79.5769 118° Southeast 206 237 21,000  Level Miami Center
02:54PM 25.7450 -79.5142 118° Southeast 206 237 21,000  Level Miami Center
02:55PM 25.7208 -79.4628 117° Southeast 206 237 21,000  Level Miami Center
02:56PM 25.6947 -79.4069 118° Southeast 206 237 21,000  Level Miami Center
02:57PM 25.6664 -79.3486 121° Southeast 206 237 21,000  Level Miami Center
02:58PM 25.6358 -79.2928 116° Southeast 206 237 21,000  Level Miami Center
02:59PM 25.6097 -79.2347 119° Southeast 206 237 21,000  Level Miami Center
03:00PM 25.5814 -79.1789 118° Southeast 206 237 21,000  Level Miami Center
03:01PM 25.5531 -79.1208 118° Southeast 206 237 21,000  Level Miami Center
03:02PM 25.5247 -79.0625 118° Southeast 206 237 21,000  Level Miami Center
03:03PM 25.4983 -79.0069 128° Southeast 206 237 21,000  Level Miami Center
03:04PM 25.4572 -78.9486 116° Southeast 206 237 21,000  Level Miami Center
03:05PM 25.4311 -78.8906 117° Southeast 206 237 21,000  Level Miami Center
03:06PM 25.4047 -78.8328 116° Southeast 212 244 21,000  Level Miami Center
03:07PM 25.3783 -78.7725 118° Southeast 207 238 21,000  Level Miami Center
03:08PM 25.3539 -78.7214 116° Southeast 207 238 21,000  Level Miami Center
03:09PM 25.3275 -78.6614 123° Southeast 207 238 21,000  Level Miami Center
03:10PM 25.2947 -78.6056 117° Southeast 207 238 21,000  Level Miami Center
03:11PM 25.2681 -78.5478 121° Southeast 207 238 21,100 960 Climbing Miami Center
03:12PM 25.2394 -78.4947 118° Southeast 207 238 23,000 540 Climbing Miami Center
03:13PM 25.2131 -78.4392 121° Southeast 201 231 22,200 -240 Descending Miami Center
03:14PM 25.1864 -78.3906 118° Southeast 201 231 22,600 300 Climbing Miami Center
03:15PM 25.1597 -78.3350 118° Southeast 201 231 22,900 180 Climbing Miami Center
03:16PM 25.1331 -78.2797 118° Southeast 201 231 23,000  Climbing Miami Center
03:17PM 25.1044 -78.2197 120° Southeast 207 238 23,000  Level Miami Center
03:18PM 25.0736 -78.1597 117° Southeast 212 244 23,000 -60 Level Miami Center
03:19PM 25.0447 -78.0975 120° Southeast 219 252 22,900 -60 Descending Miami Center
03:20PM 25.0139 -78.0375 121° Southeast 224 258 22,900  Level Miami Center
03:21PM 24.9811 -77.9778 120° Southeast 224 258 22,900  Level Miami Center
03:22PM 24.9481 -77.9156 119° Southeast 224 258 23,000  Climbing Miami Center
03:23PM 24.9169 -77.8533 119° Southeast 230 265 22,900  Descending Miami Center
03:24PM 24.8861 -77.7911 120° Southeast 230 265 23,000  Climbing Miami Center
03:25PM 24.8531 -77.7292 117° Southeast 230 265 23,000  Level Miami Center
03:26PM 24.8242 -77.6672 120° Southeast 230 265 23,000  Level Miami Center
03:27PM 24.7911 -77.6050 119° Southeast 230 265 23,000  Level Miami Center
03:28PM 24.7600 -77.5431 119° Southeast 230 265 23,000  Level Miami Center
03:29PM 24.7289 -77.4811 119° Southeast 230 265 23,000  Level Miami Center
03:30PM 24.6978 -77.4192 118° Southeast 230 265 23,000  Level Miami Center
03:31PM 24.6686 -77.3597 119° Southeast 230 265 23,000  Level Miami Center
03:32PM 24.6375 -77.2978 120° Southeast 230 265 23,000  Level Miami Center
03:33PM 24.6064 -77.2383 116° Southeast 230 265 23,000  Level Miami Center
03:34PM 24.5794 -77.1764 121° Southeast 230 265 23,000  Level Miami Center
03:35PM 24.5461 -77.1147 118° Southeast 230 265 23,000  Level Miami Center
03:36PM 24.5169 -77.0553 118° Southeast 230 265 23,000  Level Miami Center
03:37PM 24.4878 -76.9958 120° Southeast 230 265 23,000  Level Miami Center
03:38PM 24.4564 -76.9364 117° Southeast 230 265 23,100 60 Climbing Miami Center
03:39PM 24.4292 -76.8772 121° Southeast 225 259 23,200  Climbing Miami Center
03:40PM 24.3958 -76.8156 121° Southeast 225 259 23,100 -60 Descending Miami Center
03:41PM 24.3664 -76.7608 117° Southeast 225 259 23,100 -60 Level Miami Center
03:42PM 24.3372 -76.6992 120° Southeast 225 259 23,000  Descending Miami Center
03:43PM 24.3058 -76.6400 119° Southeast 225 259 23,100  Climbing Miami Center
03:44PM 24.2742 -76.5761 118° Southeast 225 259 23,100  Level Miami Center
03:45PM 24.2450 -76.5169 118° Southeast 220 253 23,100  Level Miami Center
03:46PM 24.2156 -76.4556 119° Southeast 220 253 23,100  Level Miami Center
03:47PM 24.1839 -76.3942 120° Southeast 220 253 23,100  Level Miami Center
03:48PM 24.1544 -76.3372 119° Southeast 220 253 23,100  Level Miami Center
03:49PM 24.1228 -76.2736 119° Southeast 220 253 23,100  Level Miami Center
03:50PM 24.0933 -76.2147 120° Southeast 220 253 23,100  Level Miami Center
03:51PM 24.0617 -76.1556 117° Southeast 220 253 23,100  Level Miami Center
03:52PM 24.0344 -76.0967 120° Southeast 220 253 23,100  Level Miami Center
03:53PM 24.0025 -76.0356 119° Southeast 220 253 23,100  Level Miami Center
03:54PM 23.9708 -75.9742 118° Southeast 220 253 23,100  Level Miami Center
03:55PM 23.9414 -75.9131 120° Southeast 225 259 23,100  Level Miami Center
03:56PM 23.9094 -75.8519 120° Southeast 225 259 23,100  Level Miami Center
03:57PM 23.8778 -75.7908 118° Southeast 225 259 23,100  Level Miami Center
03:58PM 23.8481 -75.7297 119° Southeast 225 259 23,100  Level Miami Center
03:59PM 23.8161 -75.6664 120° Southeast 225 259 23,100  Level Miami Center
04:00PM 23.7908 -75.6189 118° Southeast 225 259 23,100  Level Miami Center
04:01PM 23.7567 -75.5489 120° Southeast 225 259 23,100  Level Miami Center
04:02PM 23.7247 -75.4881 121° Southeast 225 259 23,100  Level Miami Center
04:03PM 23.6931 -75.4294 119° Southeast 225 259 23,100  Level Miami Center
04:04PM 23.6608 -75.3661 119° Southeast 225 259 23,100  Level Miami Center
04:05PM 23.6311 -75.3075 118° Southeast 225 259 23,100  Level Miami Center
04:06PM 23.6011 -75.2467 121° Southeast 225 259 23,100  Level Miami Center
04:07PM 23.5692 -75.1883 117° Southeast 225 259 23,100  Level Miami Center
04:08PM 23.5392 -75.1228 121° Southeast 225 259 23,100  Level Miami Center
04:09PM 23.5072 -75.0644 121° Southeast 225 259 23,100  Level Miami Center
04:10PM 23.4750 -75.0058 120° Southeast 225 259 23,100  Level Miami Center
04:11PM 23.4431 -74.9453 117° Southeast 225 259 23,100  Level Miami Center
04:12PM 23.4131 -74.8822 119° Southeast 225 259 23,100  Level Miami Center
04:13PM 23.3828 -74.8217 122° Southeast 225 259 23,100  Level Miami Center
04:14PM 23.3486 -74.7611 118° Southeast 225 259 23,100  Level Miami Center
04:15PM 23.3186 -74.7006 122° Southeast 225 259 23,100  Level Miami Center
04:16PM 23.2842 -74.6400 118° Southeast 231 266 23,100  Level Miami Center
04:17PM 23.2561 -74.5817 118° Southeast 231 266 23,100  Level Miami Center
04:18PM 23.2258 -74.5189 120° Southeast 231 266 23,100  Level Miami Center
04:19PM 23.1936 -74.4586 120° Southeast 226 260 23,100  Level Miami Center
04:20PM 23.1633 -74.4006 122° Southeast 226 260 23,100 -240 Level Miami Center
04:21PM 23.1269 -74.3378 120° Southeast 226 260 22,700 -420 Descending Miami Center
04:22PM 23.0925 -74.2731 121° Southeast 231 266 22,300 -420 Descending Miami Center
04:23PM 23.0578 -74.2106 118° Southeast 238 274 21,900 -480 Descending Miami Center
04:24PM 23.0253 -74.1436 120° Southeast 243 280 21,400 -480 Descending Miami Center
04:25PM 22.9908 -74.0789 119° Southeast 248 285 21,000 -420 Descending Miami Center
04:26PM 22.9581 -74.0142 120° Southeast 248 285 20,600 -480 Descending Miami Center
04:27PM 22.9258 -73.9539 123° Southeast 248 285 20,100 -480 Descending Miami Center
04:28PM 22.8869 -73.8894 119° Southeast 248 285 19,700 -420 Descending Miami Center
04:29PM 22.8522 -73.8228 122° Southeast 248 285 19,300 -420 Descending Miami Center
04:30PM 22.8175 -73.7625 118° Southeast 243 280 18,900 -480 Descending Miami Center
04:31PM 22.7869 -73.7003 123° Southeast 243 280 18,400 -480 Descending Miami Center
04:32PM 22.7522 -73.6425 118° Southeast 243 280 18,000 -420 Descending Miami Center
04:33PM 22.7217 -73.5803 120° Southeast 237 273 17,600 -480 Descending Miami Center
04:34PM 22.6892 -73.5203 114° Southeast 232 267 17,100 -480 Descending Miami Center
04:35PM 22.6647 -73.4603 124° Southeast 227 261 16,700 -480 Descending Miami Center
04:36PM 22.6278 -73.4006 120° Southeast 227 261 16,200 -600 Descending Miami Center
04:37PM 22.5950 -73.3383 116° Southeast 227 261 15,600 -660 Descending Miami Center
04:38PM 22.5664 -73.2761 125° Southeast 232 267 14,900 -720 Descending Miami Center
04:39PM 22.5297 -73.2189 120° Southeast 232 267 14,200 -720 Descending Miami Center
04:40PM 22.4969 -73.1567 121° Southeast 232 267 13,500 -780 Descending Miami Center
04:41PM 22.4639 -73.0969 118° Southeast 232 267 12,700 -840 Descending Miami Center
04:42PM 22.4333 -73.0350 117° Southeast 239 275 11,900 -840 Descending Miami Center
04:43PM 22.4067 -72.9775 124° Southeast 234 269 11,100 -600 Descending Miami Center
04:44PM 22.3653 -72.9114 127° Southeast 234 269 10,700 -780 Descending Miami Center
04:45PM 22.3350 -72.8672 118° Southeast 234 269 9,600 -900 Descending Miami Center
04:46PM 22.3083 -72.8119 119° Southeast 217 250 8,900 -780 Descending Miami Center
04:47PM 22.2797 -72.7569 121° Southeast 212 244 8,100 -780 Descending Miami Center
04:48PM 22.2492 -72.7017 120° Southeast 212 244 7,400 -720 Descending Miami Center
04:49PM 22.2206 -72.6489 116° Southeast 207 238 6,700 -600 Descending Miami Center
04:50PM 22.1961 -72.5958 117° Southeast 202 232 6,300 -420 Descending Miami Center
04:51PM 22.1717 -72.5450 148° Southeast 197 227 5,900 -420 Descending Miami Center
04:59PM 21.8257 -72.3109 143° Southeast  Level FlightAware Approximate
05:00PM 21.7813 -72.2748 143° Southeast  Level Estimated
05:01PM 21.7369 -72.2387 323° Northwest  Level Estimated
05:02PM 21.7813 -72.2748 143° Southeast  Level Estimated
05:03PM 21.7369 -72.2387 323° Northwest  Level Estimated
05:04PM 21.7813 -72.2748 153° Southeast  Level Estimated
05:05PM 21.7667 -72.2667 345° North  Level FlightAware Approximate
05:06PM 21.8205 -72.2819 165° South  Level Estimated
05:07PM 21.7667 -72.2667 345° North  Level FlightAware Approximate
05:08PM 21.8205 -72.2819 165° South  Level Estimated
05:09PM 21.7667 -72.2667 345° North  Level FlightAware Approximate
05:10PM 21.8205 -72.2819 345° North  Level Estimated